MST,Max TemperatureF,Mean TemperatureF,Min TemperatureF,Max Dew PointF,MeanDew PointF,Min DewpointF,Max Humidity, Mean Humidity, Min Humidity, Max Sea Level PressureIn, Mean Sea Level PressureIn, Min Sea Level PressureIn, Max VisibilityMiles, Mean VisibilityMiles, Min VisibilityMiles, Max Wind SpeedMPH, Mean Wind SpeedMPH, Max Gust SpeedMPH,PrecipitationIn, CloudCover, Events, WindDirDegrees
2014-1-1,48,36,23,18,15,14,69,47,27,30.35,30.27,30.20,10,10,10,15,6,20,0.00,0,,48
2014-1-2,53,34,15,18,12,7,80,48,15,30.40,30.32,30.24,10,9,3,7,1,,0.00,0,,211
2014-1-3,53,35,17,18,14,10,73,40,21,30.24,30.13,30.02,10,10,4,18,7,24,0.00,0,,198
2014-1-4,51,37,23,21,18,10,64,43,28,30.15,30.03,29.96,10,10,10,24,14,29,0.00,0,,193
2014-1-5,35,22,8,10,-3,-13,85,39,12,30.32,30.22,30.14,10,10,10,15,5,20,0.00,0,Snow,30
2014-1-6,37,22,6,-2,-5,-9,67,32,13,30.44,30.37,30.32,10,10,10,15,5,21,0.00,0,Snow,41
2014-1-7,50,31,12,7,3,-2,57,33,16,30.31,30.21,30.12,10,10,10,16,6,20,0.00,1,,195
2014-1-8,50,36,21,10,7,3,54,32,17,30.18,30.13,30.08,10,10,10,16,8,23,0.00,0,,202
2014-1-9,48,37,26,10,9,9,47,33,20,30.14,30.08,30.02,10,10,10,20,12,25,0.00,0,,190
2014-1-10,51,35,19,16,13,10,68,44,24,30.26,30.13,30.06,10,10,10,13,7,17,0.00,0,,209
2014-1-11,57,40,23,21,17,14,74,47,21,30.31,30.24,30.11,10,10,10,18,5,20,0.00,0,,156
2014-1-12,55,40,24,19,13,0,45,33,10,30.35,30.12,30.03,10,10,10,22,14,32,0.00,0,,209
2014-1-13,44,30,15,9,5,1,62,38,20,30.44,30.38,30.31,10,10,10,14,4,20,0.00,0,,42
2014-1-14,46,30,15,12,9,7,68,43,20,30.49,30.44,30.38,10,10,10,21,6,29,0.00,0,,50
2014-1-15,50,34,17,12,9,5,63,40,20,30.50,30.42,30.34,10,10,10,10,4,,0.00,0,,34
2014-1-16,48,32,17,12,8,5,68,41,17,30.37,30.33,30.29,10,10,9,12,3,17,0.00,0,,30
2014-1-17,50,32,14,7,5,1,67,38,16,30.39,30.32,30.27,10,10,2,12,4,,0.00,0,,23
2014-1-18,53,35,17,9,6,3,58,35,14,30.35,30.29,30.26,10,10,10,16,3,17,0.00,0,,19
2014-1-19,57,38,19,10,7,5,58,34,12,30.37,30.32,30.27,10,10,2,18,4,21,0.00,0,,197
2014-1-20,55,38,21,10,7,5,54,33,14,30.45,30.34,30.27,10,10,10,12,5,,0.00,0,,84
2014-1-21,53,35,17,10,8,7,63,39,18,30.49,30.40,30.29,10,10,4,7,2,,0.00,0,,324
2014-1-22,55,40,24,12,9,5,51,33,13,30.28,30.11,30.01,10,10,7,16,5,21,0.00,0,,196
2014-1-23,46,35,24,12,10,7,54,35,21,30.38,30.17,30.01,10,10,10,13,8,17,0.00,0,,309
2014-1-24,41,29,17,14,11,9,73,48,31,30.51,30.44,30.39,10,10,10,12,3,,0.00,0,,8
2014-1-25,50,39,28,14,13,10,55,40,22,30.43,30.32,30.21,10,10,10,7,2,,0.00,3,,22
2014-1-26,55,40,26,18,12,-4,64,37,10,30.20,30.13,30.06,10,10,10,13,6,18,0.00,0,,206
2014-1-27,53,42,30,16,10,0,51,31,12,30.12,30.08,30.02,10,10,10,12,9,16,0.00,1,,199
2014-1-28,48,34,19,10,7,5,58,35,17,30.25,30.18,30.10,10,10,10,14,7,18,0.00,0,,62
2014-1-29,57,37,17,12,7,-2,58,33,11,30.24,30.15,30.06,10,10,10,18,3,21,0.00,0,,209
2014-1-30,55,47,39,25,17,7,40,31,20,30.05,29.98,29.89,10,10,10,30,18,39,0.00,0,,196
2014-1-31,46,40,33,27,24,19,70,51,37,29.88,29.83,29.76,10,10,10,38,22,52,0.00,2,,214